createdAt,value
2023-02-01T00:00:15.087Z,3.50
2023-02-01T00:02:43.161Z,3.46
2023-02-01T00:05:12.332Z,3.45
2023-02-01T00:07:41.699Z,3.44
2023-02-01T00:10:11.086Z,3.46
2023-02-01T00:12:39.088Z,3.42
2023-02-01T00:15:08.073Z,3.34
2023-02-01T00:17:36.059Z,3.31
2023-02-01T00:20:04.809Z,3.33
2023-02-01T00:22:32.792Z,3.35
2023-02-01T00:25:02.160Z,3.36
2023-02-01T00:27:30.280Z,3.37
2023-02-01T00:29:58.262Z,3.35
2023-02-01T00:32:26.329Z,3.29
2023-02-01T00:34:54.325Z,3.26
2023-02-01T00:37:22.649Z,3.22
2023-02-01T00:39:51.346Z,3.18
2023-02-01T00:42:20.698Z,3.09
2023-02-01T00:44:48.674Z,3.03
2023-02-01T00:47:16.628Z,2.96
2023-02-01T00:49:44.791Z,2.93
2023-02-01T00:52:12.745Z,2.81
2023-02-01T00:54:40.702Z,2.80
2023-02-01T00:57:08.691Z,2.76
2023-02-01T00:59:38.067Z,2.76
2023-02-01T01:02:06.051Z,2.75
2023-02-01T01:04:34.181Z,2.76
2023-02-01T01:07:02.179Z,2.75
2023-02-01T01:09:30.193Z,2.77
2023-02-01T01:11:58.171Z,2.77
2023-02-01T01:14:26.147Z,2.75
2023-02-01T01:16:55.543Z,2.73
2023-02-01T01:19:23.697Z,2.69
2023-02-01T01:21:51.806Z,2.72
2023-02-01T01:24:19.822Z,2.73
2023-02-01T01:26:47.919Z,2.78
2023-02-01T01:29:15.944Z,2.83
2023-02-01T01:31:43.905Z,2.85
2023-02-01T01:34:13.343Z,2.87
2023-02-01T01:36:41.388Z,2.85
2023-02-01T01:39:09.416Z,2.92
2023-02-01T01:41:37.447Z,2.86
2023-02-01T01:44:59.359Z,2.77
2023-02-01T01:47:35.544Z,2.72
2023-02-01T01:50:08.907Z,2.71
2023-02-01T01:52:39.044Z,2.55
2023-02-01T01:55:07.874Z,2.51
2023-02-01T01:57:40.277Z,2.49
2023-02-01T02:00:12.301Z,2.50
2023-02-01T02:02:48.999Z,2.58
2023-02-01T02:05:20.791Z,2.54
2023-02-01T02:07:51.508Z,2.58
2023-02-01T02:10:20.513Z,2.55
2023-02-01T02:12:50.779Z,2.47
2023-02-01T02:15:19.523Z,2.44
2023-02-01T02:17:54.045Z,2.42
2023-02-01T02:20:41.837Z,2.44
2023-02-01T02:23:47.004Z,2.42
2023-02-01T02:26:50.631Z,2.38
2023-02-01T02:30:20.791Z,2.33
2023-02-01T02:33:17.540Z,2.31
2023-02-01T02:35:53.707Z,2.37
2023-02-01T02:38:31.636Z,2.45
2023-02-01T02:41:09.154Z,2.47
2023-02-01T02:44:08.980Z,2.45
2023-02-01T02:46:58.689Z,2.48
2023-02-01T02:49:32.288Z,2.49
2023-02-01T02:52:25.004Z,2.48
2023-02-01T02:54:56.426Z,2.50
2023-02-01T02:57:46.350Z,2.50
2023-02-01T03:00:36.125Z,2.44
2023-02-01T03:03:21.951Z,2.41
2023-02-01T03:05:52.574Z,2.39
2023-02-01T03:08:22.951Z,2.36
2023-02-01T03:10:59.190Z,2.34
2023-02-01T03:13:35.407Z,2.33
2023-02-01T03:16:09.193Z,2.29
2023-02-01T03:18:44.572Z,2.30
2023-02-01T03:21:19.978Z,2.30
2023-02-01T03:23:50.972Z,2.29
2023-02-01T03:26:22.698Z,2.27
2023-02-01T03:28:57.660Z,2.27
2023-02-01T03:31:26.521Z,2.24
2023-02-01T03:33:54.549Z,2.20
2023-02-01T03:36:28.729Z,2.13
2023-02-01T03:39:03.515Z,2.06
2023-02-01T03:41:40.001Z,2.06
2023-02-01T03:44:20.429Z,2.06
2023-02-01T03:46:54.028Z,2.08
2023-02-01T03:49:28.492Z,2.05
2023-02-01T03:52:00.828Z,2.11
2023-02-01T03:54:30.738Z,2.15
2023-02-01T03:57:03.443Z,2.14
2023-02-01T03:59:31.971Z,2.16
2023-02-01T04:02:00.155Z,2.16
2023-02-01T04:04:28.482Z,2.16
2023-02-01T04:06:59.167Z,2.19
2023-02-01T04:09:27.321Z,2.19
2023-02-01T04:11:55.388Z,2.22
2023-02-01T04:14:23.569Z,2.27
2023-02-01T04:16:51.687Z,2.26
2023-02-01T04:19:19.733Z,2.31
2023-02-01T04:21:47.683Z,2.30
2023-02-01T04:24:17.111Z,2.29
2023-02-01T04:26:45.266Z,2.24
2023-02-01T04:29:13.388Z,2.22
2023-02-01T04:31:41.843Z,2.20
2023-02-01T04:34:09.892Z,2.17
2023-02-01T04:36:37.870Z,2.18
2023-02-01T04:39:06.214Z,2.20
2023-02-01T04:41:36.161Z,2.22
2023-02-01T04:44:04.126Z,2.29
2023-02-01T04:46:32.220Z,2.27
2023-02-01T04:49:00.301Z,2.25
2023-02-01T04:51:28.397Z,2.24
2023-02-01T04:53:56.831Z,2.22
2023-02-01T04:56:24.963Z,2.25
2023-02-01T04:58:54.402Z,2.24
2023-02-01T05:01:22.377Z,2.19
2023-02-01T05:03:50.433Z,2.14
2023-02-01T05:06:18.683Z,2.12
2023-02-01T05:08:46.693Z,2.05
2023-02-01T05:11:28.517Z,1.97
2023-02-01T05:13:57.968Z,1.99
2023-02-01T05:16:26.425Z,1.94
2023-02-01T05:18:54.612Z,1.95
2023-02-01T05:21:22.601Z,1.88
2023-02-01T05:24:08.011Z,1.89
2023-02-01T05:26:36.052Z,1.95
2023-02-01T05:29:06.110Z,1.89
2023-02-01T05:31:34.313Z,1.83
2023-02-01T05:34:02.402Z,1.83
2023-02-01T05:36:30.369Z,1.83
2023-02-01T05:38:58.640Z,1.83
2023-02-01T05:41:26.893Z,1.87
2023-02-01T05:43:54.904Z,1.88
2023-02-01T05:46:24.317Z,1.89
2023-02-01T05:48:52.331Z,1.92
2023-02-01T05:51:20.303Z,1.93
2023-02-01T05:53:48.289Z,1.97
2023-02-01T05:56:16.235Z,1.97
2023-02-01T05:58:44.273Z,2.00
2023-02-01T06:01:12.333Z,2.07
2023-02-01T06:03:41.766Z,2.10
2023-02-01T06:06:09.868Z,2.13
2023-02-01T06:08:37.872Z,2.17
2023-02-01T06:11:07.185Z,2.20
2023-02-01T06:13:35.476Z,2.21
2023-02-01T06:16:04.503Z,2.24
2023-02-01T06:18:32.678Z,2.34
2023-02-01T06:21:02.613Z,2.31
2023-02-01T06:23:31.113Z,2.29
2023-02-01T06:26:03.895Z,2.21
2023-02-01T06:28:32.930Z,2.15
2023-02-01T06:31:07.595Z,2.10
2023-02-01T06:33:36.343Z,2.22
2023-02-01T06:36:07.781Z,2.17
2023-02-01T06:38:36.430Z,2.19
2023-02-01T06:41:05.432Z,2.13
2023-02-01T06:43:34.275Z,2.21
2023-02-01T06:46:03.404Z,2.26
2023-02-01T06:48:31.568Z,2.29
2023-02-01T06:50:59.519Z,2.32
2023-02-01T06:53:28.993Z,2.26
2023-02-01T06:55:58.236Z,2.31
2023-02-01T06:58:29.900Z,2.41
2023-02-01T07:00:58.051Z,2.33
2023-02-01T07:03:26.185Z,2.15
2023-02-01T07:05:59.513Z,2.21
2023-02-01T07:08:29.157Z,2.34
2023-02-01T07:10:57.155Z,2.43
2023-02-01T07:13:25.185Z,2.42
2023-02-01T07:15:53.213Z,2.42
2023-02-01T07:18:21.172Z,2.48
2023-02-01T07:20:52.323Z,2.45
2023-02-01T07:23:21.268Z,2.42
2023-02-01T07:25:50.720Z,2.44
2023-02-01T07:28:18.843Z,2.45
2023-02-01T07:30:51.868Z,2.41
2023-02-01T07:33:22.201Z,2.39
2023-02-01T07:35:51.241Z,2.34
2023-02-01T07:38:20.609Z,2.32
2023-02-01T07:40:49.979Z,2.36
2023-02-01T07:43:18.308Z,2.39
2023-02-01T07:45:53.397Z,2.39
2023-02-01T07:48:21.569Z,2.52
2023-02-01T07:50:49.619Z,2.61
2023-02-01T07:53:17.626Z,2.60
2023-02-01T07:55:45.636Z,2.63
2023-02-01T07:58:15.086Z,2.53
2023-02-01T08:01:00.361Z,2.45
2023-02-01T08:03:28.404Z,2.54
2023-02-01T08:05:56.876Z,2.58
2023-02-01T08:08:25.362Z,2.55
2023-02-01T08:10:55.636Z,2.52
2023-02-01T08:13:25.249Z,2.45
2023-02-01T08:15:53.228Z,2.21
2023-02-01T08:18:21.906Z,1.87
2023-02-01T08:20:49.971Z,1.77
2023-02-01T08:23:18.135Z,1.91
2023-02-01T08:25:46.323Z,2.11
2023-02-01T08:28:15.353Z,2.34
2023-02-01T08:30:44.779Z,2.62
2023-02-01T08:33:12.894Z,2.69
2023-02-01T08:35:44.065Z,2.76
2023-02-01T08:38:12.495Z,2.86
2023-02-01T08:40:42.380Z,2.91
2023-02-01T08:43:10.402Z,2.92
2023-02-01T08:45:38.410Z,3.08
2023-02-01T08:48:08.103Z,3.21
2023-02-01T08:50:36.467Z,3.27
2023-02-01T08:53:04.489Z,3.23
2023-02-01T08:55:32.498Z,3.23
2023-02-01T08:58:00.535Z,3.31
2023-02-01T09:00:28.722Z,3.39
2023-02-01T09:02:57.900Z,3.49
2023-02-01T09:05:35.003Z,3.50
2023-02-01T09:08:09.286Z,3.50
2023-02-01T09:10:39.024Z,3.59
2023-02-01T09:13:07.252Z,3.62
2023-02-01T09:15:35.249Z,3.66
2023-02-01T09:18:03.348Z,3.71
2023-02-01T09:20:32.814Z,3.70
2023-02-01T09:23:01.114Z,3.74
2023-02-01T09:25:29.410Z,3.75
2023-02-01T09:27:57.375Z,3.84
2023-02-01T09:30:25.800Z,3.85
2023-02-01T09:32:54.063Z,3.92
2023-02-01T09:35:22.107Z,4.00
2023-02-01T09:37:51.457Z,4.04
2023-02-01T09:40:19.795Z,4.15
2023-02-01T09:43:10.931Z,4.17
2023-02-01T09:45:51.365Z,4.20
2023-02-01T09:48:23.210Z,4.26
2023-02-01T09:50:55.268Z,4.32
2023-02-01T09:53:30.055Z,4.40
2023-02-01T09:56:02.609Z,4.45
2023-02-01T09:58:37.684Z,4.54
2023-02-01T10:01:13.665Z,4.58
2023-02-01T10:03:41.749Z,4.60
2023-02-01T10:06:28.941Z,4.69
2023-02-01T10:09:12.628Z,4.78
2023-02-01T10:11:51.860Z,4.78
2023-02-01T10:14:42.755Z,4.77
2023-02-01T10:17:22.393Z,4.88
2023-02-01T10:20:01.088Z,4.85
2023-02-01T10:23:03.680Z,4.75
2023-02-01T10:25:38.965Z,4.76
2023-02-01T10:28:07.298Z,4.89
2023-02-01T10:30:41.943Z,4.99
2023-02-01T10:33:17.680Z,5.04
2023-02-01T10:35:48.047Z,5.10
2023-02-01T10:38:29.444Z,5.07
2023-02-01T10:41:04.126Z,5.13
2023-02-01T10:43:34.992Z,5.17
2023-02-01T10:46:03.075Z,5.19
2023-02-01T10:48:31.321Z,5.14
2023-02-01T10:51:02.700Z,5.13
2023-02-01T10:53:38.249Z,5.29
2023-02-01T10:56:10.718Z,5.37
2023-02-01T10:58:46.125Z,5.28
2023-02-01T11:01:21.481Z,5.26
2023-02-01T11:03:56.005Z,5.37
2023-02-01T11:06:32.759Z,5.45
2023-02-01T11:09:03.364Z,5.53
2023-02-01T11:11:32.807Z,5.50
2023-02-01T11:14:03.026Z,5.51
2023-02-01T11:16:35.671Z,5.60
2023-02-01T11:19:04.013Z,5.62
2023-02-01T11:21:32.230Z,5.63
2023-02-01T11:24:03.861Z,5.61
2023-02-01T11:26:34.160Z,5.35
2023-02-01T11:29:05.631Z,5.25
2023-02-01T11:31:36.174Z,5.27
2023-02-01T11:34:09.671Z,5.37
2023-02-01T11:36:39.479Z,5.50
2023-02-01T11:39:25.089Z,5.64
2023-02-01T11:42:04.330Z,5.33
2023-02-01T11:44:36.518Z,5.48
2023-02-01T11:47:23.564Z,5.67
2023-02-01T11:49:53.959Z,5.77
2023-02-01T11:52:35.848Z,5.73
2023-02-01T11:55:20.409Z,5.93
2023-02-01T11:58:02.593Z,6.06
2023-02-01T12:00:59.135Z,6.10
2023-02-01T12:03:57.147Z,6.21
2023-02-01T12:06:36.583Z,5.96
2023-02-01T12:09:23.364Z,5.90
2023-02-01T12:11:59.997Z,5.93
2023-02-01T12:14:52.643Z,6.06
2023-02-01T12:17:46.955Z,6.29
2023-02-01T12:20:37.322Z,6.46
2023-02-01T12:23:23.403Z,6.56
2023-02-01T12:26:14.402Z,6.58
2023-02-01T12:29:00.225Z,6.53
2023-02-01T12:31:57.094Z,6.45
2023-02-01T12:34:41.081Z,6.53
2023-02-01T12:37:23.303Z,6.54
2023-02-01T12:40:10.337Z,6.39
2023-02-01T12:42:50.511Z,6.52
2023-02-01T12:45:57.582Z,6.59
2023-02-01T12:49:04.180Z,6.77
2023-02-01T12:51:41.348Z,6.92
2023-02-01T12:54:15.282Z,6.98
2023-02-01T12:56:48.230Z,6.92
2023-02-01T12:59:25.607Z,6.84
2023-02-01T13:02:00.103Z,6.85
2023-02-01T13:04:35.265Z,6.89
2023-02-01T13:07:11.914Z,6.99
2023-02-01T13:09:45.102Z,7.11
2023-02-01T13:12:18.226Z,7.15
2023-02-01T13:14:51.776Z,7.13
2023-02-01T13:17:24.507Z,7.02
2023-02-01T13:19:58.154Z,6.88
2023-02-01T13:22:31.429Z,7.03
2023-02-01T13:25:03.103Z,7.20
2023-02-01T13:27:33.292Z,7.31
2023-02-01T13:30:04.516Z,7.31
2023-02-01T13:33:53.600Z,7.31
2023-02-01T13:36:19.764Z,7.37
2023-02-01T13:39:22.603Z,7.49
2023-02-01T13:41:58.143Z,7.70
2023-02-01T13:44:32.035Z,7.86
2023-02-01T13:47:04.846Z,7.82
2023-02-01T13:49:39.376Z,7.90
2023-02-01T13:52:29.430Z,7.98
2023-02-01T13:55:18.374Z,7.84
2023-02-01T13:57:46.978Z,7.48
2023-02-01T14:00:31.619Z,7.28
2023-02-01T14:03:13.036Z,7.34
2023-02-01T14:06:17.987Z,7.55
2023-02-01T14:09:10.274Z,7.64
2023-02-01T14:11:44.961Z,7.83
2023-02-01T14:14:51.040Z,7.93
2023-02-01T14:17:38.373Z,7.84
2023-02-01T14:20:52.006Z,7.64
2023-02-01T14:23:32.571Z,7.27
2023-02-01T14:26:14.763Z,7.11
2023-02-01T14:28:47.115Z,7.21
2023-02-01T14:31:37.450Z,7.29
2023-02-01T14:34:15.528Z,7.37
2023-02-01T14:36:48.403Z,7.44
2023-02-01T14:39:31.272Z,7.34
2023-02-01T14:42:04.689Z,7.46
2023-02-01T14:44:38.148Z,7.47
2023-02-01T14:47:32.143Z,7.38
2023-02-01T14:50:15.593Z,7.52
2023-02-01T14:52:46.638Z,7.61
2023-02-01T14:55:19.844Z,7.54
2023-02-01T14:57:54.479Z,7.43
2023-02-01T15:00:26.081Z,7.17
2023-02-01T15:02:56.002Z,7.25
2023-02-01T15:05:33.727Z,7.17
2023-02-01T15:08:18.940Z,7.23
2023-02-01T15:10:49.784Z,7.23
2023-02-01T15:13:24.316Z,7.12
2023-02-01T15:16:06.485Z,6.87
2023-02-01T15:18:35.211Z,6.91
2023-02-01T15:21:09.741Z,6.84
2023-02-01T15:24:11.690Z,6.96
2023-02-01T15:26:39.897Z,6.90
2023-02-01T15:29:13.288Z,7.02
2023-02-01T15:31:43.940Z,7.09
2023-02-01T15:34:12.398Z,7.17
2023-02-01T15:36:42.494Z,7.19
2023-02-01T15:39:24.101Z,7.13
2023-02-01T15:41:55.123Z,7.12
2023-02-01T15:44:32.449Z,6.97
2023-02-01T15:47:02.880Z,6.64
2023-02-01T15:49:33.900Z,6.53
2023-02-01T15:52:03.910Z,6.44
2023-02-01T15:54:45.337Z,6.34
2023-02-01T15:57:13.496Z,6.18
2023-02-01T15:59:45.648Z,6.26
2023-02-01T16:02:28.796Z,6.31
2023-02-01T16:04:56.886Z,6.24
2023-02-01T16:07:29.476Z,6.11
2023-02-01T16:10:00.457Z,6.08
2023-02-01T16:12:35.165Z,6.05
2023-02-01T16:15:05.331Z,6.01
2023-02-01T16:17:33.802Z,6.00
2023-02-01T16:20:02.131Z,5.95
2023-02-01T16:22:30.116Z,5.96
2023-02-01T16:24:58.079Z,5.89
2023-02-01T16:27:26.076Z,5.84
2023-02-01T16:29:56.929Z,5.79
2023-02-01T16:32:27.712Z,5.81
2023-02-01T16:34:55.807Z,5.88
2023-02-01T16:37:28.540Z,5.79
2023-02-01T16:39:56.586Z,5.75
2023-02-01T16:42:24.500Z,5.72
2023-02-01T16:44:52.459Z,5.73
2023-02-01T16:47:23.679Z,5.71
2023-02-01T16:49:53.629Z,5.70
2023-02-01T16:52:23.544Z,5.71
2023-02-01T16:54:51.651Z,5.72
2023-02-01T16:57:23.545Z,5.72
2023-02-01T16:59:52.110Z,5.82
2023-02-01T17:02:22.860Z,5.89
2023-02-01T17:04:51.033Z,5.90
2023-02-01T17:07:21.124Z,5.97
2023-02-01T17:09:49.331Z,5.99
2023-02-01T17:12:23.964Z,5.97
2023-02-01T17:14:52.816Z,5.95
2023-02-01T17:17:32.683Z,5.94
2023-02-01T17:20:07.016Z,5.91
2023-02-01T17:22:36.369Z,5.94
2023-02-01T17:25:07.003Z,5.90
2023-02-01T17:27:35.449Z,5.89
2023-02-01T17:30:04.288Z,5.88
2023-02-01T17:32:32.783Z,5.91
2023-02-01T17:35:00.735Z,5.96
2023-02-01T17:37:31.015Z,5.99
2023-02-01T17:40:00.783Z,5.99
2023-02-01T17:42:30.727Z,6.01
2023-02-01T17:45:01.197Z,6.01
2023-02-01T17:47:29.574Z,6.01
2023-02-01T17:49:57.485Z,6.01
2023-02-01T17:52:26.517Z,5.99
2023-02-01T17:54:55.146Z,5.94
2023-02-01T17:57:24.408Z,5.89
2023-02-01T17:59:52.328Z,5.86
2023-02-01T18:02:22.873Z,5.80
2023-02-01T18:04:51.460Z,5.72
2023-02-01T18:07:19.652Z,5.73
2023-02-01T18:09:47.737Z,5.65
2023-02-01T18:12:25.529Z,5.58
2023-02-01T18:14:54.848Z,5.63
2023-02-01T18:17:23.049Z,5.66
2023-02-01T18:19:50.967Z,5.64
2023-02-01T18:22:23.032Z,5.61
2023-02-01T18:24:51.041Z,5.55
2023-02-01T18:27:18.936Z,5.50
2023-02-01T18:29:46.824Z,5.48
2023-02-01T18:32:17.025Z,5.50
2023-02-01T18:34:44.936Z,5.50
2023-02-01T18:37:12.860Z,5.47
2023-02-01T18:39:40.794Z,5.46
2023-02-01T18:42:11.946Z,5.48
2023-02-01T18:44:39.931Z,5.49
2023-02-01T18:47:07.992Z,5.50
2023-02-01T18:49:37.937Z,5.47
2023-02-01T18:52:06.714Z,5.42
2023-02-01T18:54:34.713Z,5.35
2023-02-01T18:57:03.422Z,5.28
2023-02-01T18:59:31.368Z,5.20
2023-02-01T19:01:59.459Z,5.17
2023-02-01T19:04:27.550Z,5.14
2023-02-01T19:06:56.975Z,5.04
2023-02-01T19:09:24.915Z,4.99
2023-02-01T19:11:53.127Z,4.99
2023-02-01T19:14:21.185Z,4.98
2023-02-01T19:16:49.105Z,5.00
2023-02-01T19:19:16.991Z,5.01
2023-02-01T19:21:44.868Z,5.06
2023-02-01T19:24:14.117Z,5.10
2023-02-01T19:26:42.513Z,5.13
2023-02-01T19:29:10.502Z,5.12
2023-02-01T19:31:38.446Z,5.06
2023-02-01T19:34:06.367Z,4.98
2023-02-01T19:36:34.311Z,4.87
2023-02-01T19:39:02.331Z,4.81
2023-02-01T19:41:31.683Z,4.73
2023-02-01T19:43:59.862Z,4.72
2023-02-01T19:46:28.557Z,4.67
2023-02-01T19:48:56.481Z,4.58
2023-02-01T19:51:24.809Z,4.50
2023-02-01T19:53:52.808Z,4.45
2023-02-01T19:56:20.745Z,4.39
2023-02-01T19:58:51.115Z,4.33
2023-02-01T20:01:18.759Z,4.33
2023-02-01T20:03:46.711Z,4.37
2023-02-01T20:06:14.659Z,4.36
2023-02-01T20:08:42.623Z,4.36
2023-02-01T20:11:10.562Z,4.35
2023-02-01T20:13:38.728Z,4.35
2023-02-01T20:16:08.311Z,4.39
2023-02-01T20:18:37.278Z,4.44
2023-02-01T20:21:05.590Z,4.50
2023-02-01T20:23:33.536Z,4.54
2023-02-01T20:26:04.138Z,4.51
2023-02-01T20:28:32.477Z,4.47
2023-02-01T20:31:00.822Z,4.51
2023-02-01T20:33:31.042Z,4.49
2023-02-01T20:35:59.354Z,4.44
2023-02-01T20:38:27.246Z,4.40
2023-02-01T20:41:02.353Z,4.37
2023-02-01T20:43:30.270Z,4.36
2023-02-01T20:45:58.228Z,4.37
2023-02-01T20:48:26.472Z,4.37
2023-02-01T20:50:56.550Z,4.32
2023-02-01T20:53:27.049Z,4.32
2023-02-01T20:55:56.609Z,4.37
2023-02-01T20:58:25.127Z,4.38
2023-02-01T21:00:53.862Z,4.34
2023-02-01T21:03:22.321Z,4.33
2023-02-01T21:05:51.896Z,4.29
2023-02-01T21:08:21.974Z,4.29
2023-02-01T21:10:57.794Z,4.28
2023-02-01T21:13:26.217Z,4.27
2023-02-01T21:15:54.497Z,4.31
2023-02-01T21:18:23.230Z,4.29
2023-02-01T21:20:51.701Z,4.26
2023-02-01T21:23:21.115Z,4.24
2023-02-01T21:25:49.453Z,4.22
2023-02-01T21:28:17.399Z,4.17
2023-02-01T21:30:45.309Z,4.19
2023-02-01T21:33:13.236Z,4.19
2023-02-01T21:35:43.392Z,4.24
2023-02-01T21:38:11.430Z,4.21
2023-02-01T21:40:40.774Z,4.22
2023-02-01T21:43:08.908Z,4.23
2023-02-01T21:45:38.291Z,4.21
2023-02-01T21:48:07.914Z,4.21
2023-02-01T21:50:36.204Z,4.23
2023-02-01T21:53:04.710Z,4.20
2023-02-01T21:55:32.629Z,4.18
2023-02-01T21:58:01.904Z,4.22
2023-02-01T22:00:29.811Z,4.28
2023-02-01T22:02:57.709Z,4.35
2023-02-01T22:05:26.120Z,4.33
2023-02-01T22:07:54.208Z,4.34
2023-02-01T22:10:23.368Z,4.39
2023-02-01T22:12:52.151Z,4.41
2023-02-01T22:15:21.667Z,4.44
2023-02-01T22:17:49.572Z,4.47
2023-02-01T22:20:18.077Z,4.45
2023-02-01T22:22:48.887Z,4.39
2023-02-01T22:25:16.911Z,4.37
2023-02-01T22:28:31.643Z,4.35
2023-02-01T22:30:34.242Z,4.33
2023-02-01T22:33:02.208Z,4.33
2023-02-01T22:35:30.133Z,4.33
2023-02-01T22:37:58.046Z,4.28
2023-02-01T22:40:26.019Z,4.24
2023-02-01T22:42:53.897Z,4.22
2023-02-01T22:45:22.126Z,4.22
2023-02-01T22:47:52.883Z,4.24
2023-02-01T22:50:22.033Z,4.21
2023-02-01T22:52:49.950Z,4.23
2023-02-01T22:55:17.901Z,4.25
2023-02-01T22:57:45.759Z,4.21
2023-02-01T23:00:14.807Z,4.22
2023-02-01T23:02:43.277Z,4.21
2023-02-01T23:05:12.766Z,4.21
2023-02-01T23:07:40.717Z,4.20
2023-02-01T23:10:10.066Z,4.27
2023-02-01T23:12:38.006Z,4.35
2023-02-01T23:15:06.713Z,4.32
2023-02-01T23:17:35.122Z,4.32
2023-02-01T23:20:03.406Z,4.32
2023-02-01T23:22:32.731Z,4.33
2023-02-01T23:25:00.960Z,4.35
2023-02-01T23:27:28.897Z,4.37
2023-02-01T23:29:56.867Z,4.38
2023-02-01T23:32:24.761Z,4.37
2023-02-01T23:34:52.683Z,4.37
2023-02-01T23:37:20.596Z,4.37
2023-02-01T23:39:49.856Z,4.37
2023-02-01T23:42:17.779Z,4.39
2023-02-01T23:44:45.696Z,4.45
2023-02-01T23:47:14.099Z,4.45
2023-02-01T23:49:42.136Z,4.47
2023-02-01T23:52:10.478Z,4.50
2023-02-01T23:54:38.634Z,4.51
2023-02-01T23:57:07.910Z,4.52
2023-02-01T23:59:35.863Z,4.55
